Time;durP1;ratioP1;P1;durP2;ratioP2;P2;SDS_P1;SDS_P2;PMS_P1;PMS_P2;Temp;Humidity;BMP_temperature;BMP_pressure;BME280_temperature;BME280_humidity;BME280_pressure;Samples;Min_cycle;Max_cycle;Signal;HPM_P1;HPM_P2
2024/01/02 00:00:02;;;;;;;11.33;2.23;;;7.60;99.90;;;;;;5001653;28;20027;-86
2024/01/02 00:02:28;;;;;;;18.27;2.23;;;7.70;99.90;;;;;;4999392;28;20029;-85
2024/01/02 00:04:54;;;;;;;10.17;1.70;;;7.70;99.90;;;;;;5003011;28;20019;-86
2024/01/02 00:07:19;;;;;;;11.97;1.90;;;7.60;99.90;;;;;;5001011;28;20072;-85
2024/01/02 00:09:45;;;;;;;14.20;2.43;;;7.70;99.90;;;;;;5000256;28;20069;-85
2024/01/02 00:12:11;;;;;;;17.30;2.30;;;7.60;99.90;;;;;;5001495;28;20394;-85
2024/01/02 00:14:37;;;;;;;15.30;2.27;;;7.60;99.90;;;;;;4999861;28;20057;-87
2024/01/02 00:17:03;;;;;;;14.17;1.83;;;7.70;99.90;;;;;;4985187;28;20030;-86
2024/01/02 00:19:28;;;;;;;13.03;2.03;;;7.70;99.90;;;;;;5000066;28;20382;-86
2024/01/02 00:21:54;;;;;;;11.97;2.43;;;7.60;99.90;;;;;;5001407;28;20059;-86
2024/01/02 00:24:20;;;;;;;13.27;1.83;;;7.70;99.90;;;;;;5000025;28;20030;-86
2024/01/02 00:26:46;;;;;;;11.63;2.67;;;7.70;99.90;;;;;;5000555;28;20022;-86
2024/01/02 00:29:11;;;;;;;20.20;2.30;;;7.70;99.90;;;;;;5001114;28;20046;-85
2024/01/02 00:31:37;;;;;;;13.97;2.33;;;7.70;99.90;;;;;;4999635;28;20578;-86
2024/01/02 00:34:03;;;;;;;10.27;1.67;;;7.70;99.90;;;;;;5001293;28;20109;-86
2024/01/02 00:36:29;;;;;;;7.17;1.60;;;7.70;99.90;;;;;;4998610;28;20030;-86
2024/01/02 00:38:54;;;;;;;10.57;1.47;;;7.70;99.90;;;;;;5001675;28;20085;-86
2024/01/02 00:41:20;;;;;;;16.50;2.50;;;7.70;99.90;;;;;;4999499;28;20046;-85
2024/01/02 00:43:47;;;;;;;18.40;3.30;;;7.70;99.90;;;;;;5000865;28;20101;-85
2024/01/02 00:46:13;;;;;;;9.17;1.90;;;7.70;99.90;;;;;;5000874;28;20030;-85
2024/01/02 00:48:39;;;;;;;10.87;1.50;;;7.70;99.90;;;;;;4999153;28;20034;-86
2024/01/02 00:51:05;;;;;;;12.53;2.03;;;7.70;99.90;;;;;;5001183;28;20061;-85
2024/01/02 00:53:31;;;;;;;13.27;2.07;;;7.70;99.90;;;;;;4998862;28;20022;-87
2024/01/02 00:55:56;;;;;;;14.80;2.07;;;7.70;99.90;;;;;;5003590;28;20069;-86
2024/01/02 00:58:22;;;;;;;10.43;1.90;;;7.70;99.90;;;;;;5003086;28;20026;-86
2024/01/02 01:00:48;;;;;;;14.63;1.47;;;7.70;99.90;;;;;;5004423;28;20027;-85
2024/01/02 01:03:14;;;;;;;14.50;1.93;;;7.70;99.90;;;;;;5003882;28;20033;-85
2024/01/02 01:05:39;;;;;;;10.87;1.60;;;7.70;99.90;;;;;;5003131;28;20450;-86
2024/01/02 01:08:05;;;;;;;11.70;2.20;;;7.70;99.90;;;;;;5004623;28;20092;-87
2024/01/02 01:10:31;;;;;;;10.43;1.73;;;7.70;99.90;;;;;;5002719;28;20050;-87
2024/01/02 01:12:57;;;;;;;11.70;1.60;;;7.70;99.90;;;;;;5004813;28;20030;-87
2024/01/02 01:15:22;;;;;;;11.03;1.50;;;7.70;99.90;;;;;;5003954;28;20033;-86
2024/01/02 01:17:48;;;;;;;6.03;1.43;;;7.70;99.90;;;;;;5004020;28;20031;-87
2024/01/02 01:20:14;;;;;;;12.03;2.03;;;7.70;99.90;;;;;;5003562;28;20340;-86
2024/01/02 01:22:40;;;;;;;8.83;1.60;;;7.70;99.90;;;;;;5003417;28;20029;-86
2024/01/02 01:25:06;;;;;;;12.73;1.70;;;7.70;99.90;;;;;;5003467;28;20077;-87
2024/01/02 01:27:31;;;;;;;11.23;2.07;;;7.70;99.90;;;;;;5001968;28;20108;-88
2024/01/02 01:29:57;;;;;;;9.40;1.70;;;7.70;99.90;;;;;;5004277;28;20022;-88
2024/01/02 01:32:23;;;;;;;6.17;1.30;;;7.70;99.90;;;;;;5002141;28;20027;-87
2024/01/02 01:34:49;;;;;;;5.00;1.00;;;7.70;99.90;;;;;;5003584;28;20018;-89
2024/01/02 01:37:14;;;;;;;10.83;1.47;;;7.70;99.90;;;;;;5002675;28;20026;-86
2024/01/02 01:39:40;;;;;;;9.03;1.03;;;7.70;99.90;;;;;;5003065;28;20023;-85
2024/01/02 01:42:06;;;;;;;13.43;1.13;;;7.80;99.90;;;;;;5004846;28;20034;-85
2024/01/02 01:44:32;;;;;;;4.47;0.80;;;7.70;99.90;;;;;;5002409;28;20030;-86
2024/01/02 01:46:57;;;;;;;8.87;1.40;;;7.70;99.90;;;;;;5003831;28;20416;-85
2024/01/02 01:49:23;;;;;;;8.13;0.80;;;7.70;99.90;;;;;;5001828;28;20102;-85
2024/01/02 01:51:51;;;;;;;9.37;1.00;;;7.70;99.90;;;;;;5003883;28;20018;-85
2024/01/02 01:54:18;;;;;;;12.80;1.70;;;7.70;99.90;;;;;;5001994;28;20026;-85
2024/01/02 01:56:44;;;;;;;9.37;1.00;;;7.70;99.90;;;;;;5003167;28;20063;-85
2024/01/02 01:59:13;;;;;;;7.43;1.50;;;7.70;99.90;;;;;;5003224;28;20023;-85
2024/01/02 02:01:39;;;;;;;10.43;1.10;;;7.70;99.90;;;;;;5001549;28;20497;-83
2024/01/02 02:04:05;;;;;;;5.27;0.77;;;7.70;99.90;;;;;;5003640;28;20022;-85
2024/01/02 02:06:31;;;;;;;10.07;1.20;;;7.70;99.90;;;;;;5001559;28;20074;-85
2024/01/02 02:08:57;;;;;;;5.10;0.93;;;7.70;99.90;;;;;;5003890;28;20058;-85
2024/01/02 02:11:23;;;;;;;5.90;0.90;;;7.70;99.90;;;;;;5001938;28;20022;-85
2024/01/02 02:13:50;;;;;;;6.10;1.03;;;7.80;99.90;;;;;;5003205;28;20030;-88
2024/01/02 02:16:17;;;;;;;7.83;1.10;;;7.70;99.90;;;;;;5002421;28;20022;-86
2024/01/02 02:18:44;;;;;;;7.83;1.10;;;7.70;99.90;;;;;;5002435;28;20018;-86
2024/01/02 02:21:10;;;;;;;8.00;1.13;;;7.70;99.90;;;;;;5003782;28;20022;-86
2024/01/02 02:23:35;;;;;;;5.90;0.80;;;7.70;99.90;;;;;;5001676;28;20549;-85
2024/01/02 02:26:01;;;;;;;6.17;0.87;;;7.80;99.90;;;;;;5003089;28;20030;-83
2024/01/02 02:28:27;;;;;;;4.40;0.67;;;7.70;99.90;;;;;;5002675;28;20038;-83
2024/01/02 02:30:53;;;;;;;4.83;0.63;;;7.70;99.90;;;;;;4986381;28;20073;-84
2024/01/02 02:33:19;;;;;;;3.67;0.70;;;7.70;99.90;;;;;;5002503;28;20477;-84
2024/01/02 02:35:45;;;;;;;5.77;0.70;;;7.70;99.90;;;;;;5001329;28;20031;-84
2024/01/02 02:38:10;;;;;;;7.30;0.67;;;7.70;99.90;;;;;;5002876;28;20402;-83
2024/01/02 02:40:37;;;;;;;4.93;0.60;;;7.70;99.90;;;;;;5000080;28;20050;-83
2024/01/02 02:43:03;;;;;;;2.47;0.40;;;7.70;99.90;;;;;;5002784;28;20046;-85
2024/01/02 02:45:29;;;;;;;2.30;0.50;;;7.70;99.90;;;;;;5002443;28;20022;-85
2024/01/02 02:47:55;;;;;;;2.10;0.50;;;7.70;99.90;;;;;;5002643;28;20486;-85
2024/01/02 02:50:21;;;;;;;2.63;0.50;;;7.60;99.90;;;;;;5002265;28;20479;-84
2024/01/02 02:52:47;;;;;;;2.67;0.40;;;7.70;99.90;;;;;;5003489;28;20040;-85
2024/01/02 02:55:13;;;;;;;4.10;0.40;;;7.70;99.90;;;;;;5002090;28;20097;-86
2024/01/02 02:57:39;;;;;;;1.63;0.43;;;7.70;99.90;;;;;;5000460;28;20018;-85
2024/01/02 03:00:06;;;;;;;4.60;0.60;;;7.70;99.90;;;;;;4986130;28;20121;-85
2024/01/02 03:02:33;;;;;;;3.47;0.30;;;7.70;99.90;;;;;;5000450;28;20029;-84
2024/01/02 03:04:58;;;;;;;3.40;0.30;;;7.70;99.90;;;;;;5002138;28;20030;-85
2024/01/02 03:07:33;;;;;;;2.50;0.30;;;7.70;99.90;;;;;;5000938;28;20386;-85
2024/01/02 03:09:59;;;;;;;2.43;0.40;;;7.70;99.90;;;;;;5000563;28;20034;-85
2024/01/02 03:12:25;;;;;;;1.83;0.40;;;7.70;99.90;;;;;;5002158;28;20092;-85
2024/01/02 03:14:51;;;;;;;1.53;0.40;;;7.70;99.90;;;;;;4999973;28;20026;-85
2024/01/02 03:17:16;;;;;;;1.53;0.30;;;7.70;99.90;;;;;;5001847;28;20015;-85
2024/01/02 03:19:42;;;;;;;0.83;0.30;;;7.70;99.90;;;;;;5000104;28;20101;-84
2024/01/02 03:22:08;;;;;;;1.60;0.30;;;7.70;99.90;;;;;;5001829;28;20023;-84
2024/01/02 03:24:34;;;;;;;2.27;0.40;;;7.70;99.90;;;;;;5000498;28;20038;-84
2024/01/02 03:27:00;;;;;;;2.40;0.40;;;7.70;99.90;;;;;;5001197;28;20022;-84
2024/01/02 03:29:28;;;;;;;3.13;0.50;;;7.70;99.90;;;;;;5001477;28;20034;-85
2024/01/02 03:31:54;;;;;;;0.73;0.23;;;7.70;99.90;;;;;;5000134;28;20028;-85
2024/01/02 03:34:20;;;;;;;1.63;0.43;;;7.70;99.90;;;;;;5002898;28;20057;-85
2024/01/02 03:36:46;;;;;;;1.90;0.40;;;7.70;99.90;;;;;;4999079;28;20551;-85
2024/01/02 03:39:11;;;;;;;2.57;0.40;;;7.70;99.90;;;;;;5001551;28;20041;-86
2024/01/02 03:41:37;;;;;;;0.90;0.27;;;7.70;99.90;;;;;;4999666;28;20038;-85
2024/01/02 03:44:03;;;;;;;1.07;0.30;;;7.80;99.90;;;;;;5001388;28;20021;-85
2024/01/02 03:46:29;;;;;;;0.70;0.30;;;7.80;99.90;;;;;;5000961;28;20539;-85
2024/01/02 03:48:56;;;;;;;1.57;0.40;;;7.80;99.90;;;;;;5000121;28;20034;-86
2024/01/02 03:51:22;;;;;;;1.57;0.30;;;7.80;99.90;;;;;;4985463;28;20041;-86
2024/01/02 03:53:48;;;;;;;0.70;0.30;;;7.80;99.90;;;;;;4999260;28;20387;-85
2024/01/02 03:56:16;;;;;;;0.70;0.20;;;7.80;99.90;;;;;;5001827;28;20032;-85
2024/01/02 03:58:42;;;;;;;1.43;0.20;;;7.80;99.90;;;;;;4999582;28;20077;-84
2024/01/02 04:01:08;;;;;;;1.57;0.40;;;7.80;99.90;;;;;;5001477;28;20026;-85
2024/01/02 04:03:34;;;;;;;1.90;0.23;;;7.80;99.90;;;;;;5000758;28;20086;-85
2024/01/02 04:06:00;;;;;;;1.87;0.30;;;7.80;99.90;;;;;;5001202;28;20037;-85
2024/01/02 04:08:26;;;;;;;0.70;0.20;;;7.90;99.90;;;;;;5000957;28;20027;-85
2024/01/02 04:10:51;;;;;;;0.23;0.20;;;7.80;99.90;;;;;;4999098;28;20033;-85
2024/01/02 04:13:17;;;;;;;1.37;0.23;;;7.90;99.90;;;;;;5001304;28;20394;-85
2024/01/02 04:15:43;;;;;;;0.80;0.20;;;7.90;99.90;;;;;;4999306;28;20034;-86
2024/01/02 04:18:09;;;;;;;0.77;0.20;;;7.80;99.90;;;;;;5001999;28;20036;-86
2024/01/02 04:20:35;;;;;;;0.70;0.20;;;7.90;99.90;;;;;;4999915;28;20030;-84
2024/01/02 04:23:01;;;;;;;0.30;0.10;;;7.90;99.90;;;;;;5000655;28;20046;-85
2024/01/02 04:25:26;;;;;;;0.50;0.20;;;7.90;99.90;;;;;;5001178;28;20026;-85
2024/01/02 04:27:56;;;;;;;0.20;0.20;;;8.00;99.90;;;;;;4999302;28;20034;-85
2024/01/02 04:30:25;;;;;;;0.57;0.30;;;7.90;99.90;;;;;;5004465;28;20478;-85
2024/01/02 04:32:51;;;;;;;0.40;0.20;;;8.00;99.90;;;;;;4987227;28;20053;-85
2024/01/02 04:35:17;;;;;;;0.20;0.20;;;8.00;99.90;;;;;;5004698;28;20026;-86
2024/01/02 04:37:43;;;;;;;1.13;0.20;;;8.00;99.90;;;;;;5003998;28;20105;-85
2024/01/02 04:40:10;;;;;;;0.40;0.27;;;8.00;99.90;;;;;;5004491;28;20089;-87
2024/01/02 04:42:37;;;;;;;0.63;0.20;;;8.00;99.90;;;;;;5004654;28;20054;-87
2024/01/02 04:45:06;;;;;;;0.60;0.20;;;8.10;99.90;;;;;;5003186;28;20023;-86
2024/01/02 04:47:32;;;;;;;0.97;0.30;;;8.10;99.90;;;;;;5004978;28;20053;-87
2024/01/02 04:49:59;;;;;;;0.40;0.30;;;8.10;99.90;;;;;;4986518;28;20065;-85
2024/01/02 04:52:26;;;;;;;0.73;0.30;;;8.10;99.90;;;;;;5005286;28;20506;-86
2024/01/02 04:54:51;;;;;;;0.63;0.37;;;8.10;99.90;;;;;;5003468;28;20037;-86
2024/01/02 04:57:17;;;;;;;1.37;0.40;;;8.10;99.90;;;;;;5004112;28;20058;-86
2024/01/02 04:59:43;;;;;;;0.70;0.37;;;8.20;99.90;;;;;;5004309;28;20570;-86
2024/01/02 05:02:10;;;;;;;1.03;0.47;;;8.10;99.90;;;;;;5002814;28;20053;-87
2024/01/02 05:04:36;;;;;;;1.07;0.40;;;8.20;99.90;;;;;;5004812;28;20037;-87
2024/01/02 05:07:02;;;;;;;0.87;0.40;;;8.30;99.90;;;;;;5002695;28;20027;-87
2024/01/02 05:09:28;;;;;;;0.80;0.47;;;8.20;99.90;;;;;;5004687;28;20039;-86
2024/01/02 05:11:54;;;;;;;1.33;0.50;;;8.30;99.90;;;;;;5002577;28;20026;-86
2024/01/02 05:14:19;;;;;;;0.53;0.30;;;8.30;99.90;;;;;;5004223;28;20038;-86
2024/01/02 05:16:45;;;;;;;0.77;0.40;;;8.40;99.90;;;;;;5003943;28;20034;-85
2024/01/02 05:19:11;;;;;;;0.60;0.40;;;8.40;99.90;;;;;;5002923;28;20019;-86
2024/01/02 05:21:37;;;;;;;0.70;0.40;;;8.40;99.90;;;;;;5004318;28;20027;-85
2024/01/02 05:24:03;;;;;;;0.90;0.47;;;8.40;99.90;;;;;;5001749;28;20015;-86
2024/01/02 05:26:29;;;;;;;0.80;0.50;;;8.50;99.90;;;;;;5004388;28;20026;-87
2024/01/02 05:28:54;;;;;;;0.80;0.50;;;8.50;99.90;;;;;;5002317;28;20065;-87
2024/01/02 05:31:20;;;;;;;0.90;0.50;;;8.60;99.90;;;;;;5003919;28;20023;-87
2024/01/02 05:33:46;;;;;;;0.80;0.43;;;8.60;99.90;;;;;;5002870;28;20025;-87
2024/01/02 05:36:12;;;;;;;0.97;0.50;;;8.60;99.90;;;;;;5002900;28;20021;-88
2024/01/02 05:38:37;;;;;;;0.80;0.50;;;8.70;99.90;;;;;;5003288;28;20395;-87
2024/01/02 05:41:03;;;;;;;0.77;0.47;;;8.70;99.90;;;;;;5001823;28;20054;-86
2024/01/02 05:43:29;;;;;;;1.50;0.70;;;8.80;99.90;;;;;;5005163;28;20053;-87
2024/01/02 05:45:55;;;;;;;1.00;0.60;;;8.80;99.90;;;;;;5004286;28;20022;-87
2024/01/02 05:48:21;;;;;;;1.00;0.60;;;8.80;99.90;;;;;;5001372;28;20102;-87
2024/01/02 05:50:47;;;;;;;1.10;0.63;;;8.90;99.90;;;;;;4986844;28;20042;-88
2024/01/02 05:53:13;;;;;;;0.87;0.50;;;9.00;99.90;;;;;;5005973;28;20075;-89
2024/01/02 05:55:39;;;;;;;1.53;0.70;;;9.00;99.90;;;;;;5007458;28;20018;-88
2024/01/02 05:58:05;;;;;;;1.23;0.70;;;9.10;99.90;;;;;;5006296;28;20014;-88
2024/01/02 06:00:30;;;;;;;1.50;0.80;;;9.10;99.90;;;;;;5008574;28;20026;-88
2024/01/02 06:02:56;;;;;;;1.60;0.60;;;9.20;99.90;;;;;;5005523;28;20023;-89
2024/01/02 06:05:22;;;;;;;1.63;0.80;;;9.20;99.90;;;;;;5007550;28;20029;-87
2024/01/02 06:07:48;;;;;;;1.70;0.70;;;9.20;99.90;;;;;;5005437;28;20423;-89
2024/01/02 06:10:13;;;;;;;1.60;0.87;;;9.30;99.90;;;;;;5006649;28;20371;-88
2024/01/02 06:12:40;;;;;;;1.43;0.83;;;9.40;99.90;;;;;;5006120;28;20044;-88
2024/01/02 06:15:06;;;;;;;2.00;0.90;;;9.40;99.90;;;;;;5005031;28;20467;-87
2024/01/02 06:17:31;;;;;;;1.70;0.83;;;9.50;99.90;;;;;;5006271;28;20045;-87
2024/01/02 06:19:57;;;;;;;2.10;0.90;;;9.50;99.90;;;;;;5004295;28;20017;-87
2024/01/02 06:22:23;;;;;;;1.77;0.93;;;9.60;99.90;;;;;;5005906;28;20018;-86
2024/01/02 06:24:51;;;;;;;2.00;0.90;;;9.60;99.90;;;;;;5004888;28;20109;-88
2024/01/02 06:27:17;;;;;;;2.13;0.90;;;9.70;99.90;;;;;;5006098;28;20033;-87
2024/01/02 06:29:42;;;;;;;2.17;0.97;;;9.70;99.90;;;;;;5005279;28;20038;-87
2024/01/02 06:32:08;;;;;;;2.67;1.30;;;9.70;99.90;;;;;;5005737;28;20475;-88
2024/01/02 06:34:34;;;;;;;3.40;1.50;;;9.80;99.90;;;;;;5005915;28;20030;-87
2024/01/02 06:37:00;;;;;;;3.80;1.87;;;9.90;99.90;;;;;;5004484;28;20052;-88
2024/01/02 06:39:25;;;;;;;7.20;2.08;;;9.90;99.90;;;;;;5006275;28;20026;-88
2024/01/02 06:41:51;;;;;;;6.53;3.07;;;10.00;99.90;;;;;;5004216;28;20022;-87
2024/01/02 06:44:17;;;;;;;6.83;3.50;;;10.00;99.90;;;;;;5006380;28;20018;-88
2024/01/02 06:46:42;;;;;;;7.13;3.53;;;10.10;99.90;;;;;;5004885;28;20044;-87
2024/01/02 06:49:11;;;;;;;6.32;3.75;;;10.20;99.90;;;;;;5005333;28;20045;-88
2024/01/02 06:51:37;;;;;;;7.90;4.33;;;10.20;99.90;;;;;;5005168;28;20021;-88
2024/01/02 06:54:03;;;;;;;7.95;5.07;;;10.30;99.90;;;;;;5003549;28;20020;-87
2024/01/02 06:56:28;;;;;;;10.05;6.22;;;10.30;99.90;;;;;;5006148;28;20078;-89
2024/01/02 06:58:54;;;;;;;10.68;6.10;;;10.30;99.90;;;;;;5004204;28;20794;-87
2024/01/02 07:01:20;;;;;;;11.85;7.03;;;10.40;99.90;;;;;;5006088;28;20018;-90
2024/01/02 07:03:47;;;;;;;13.30;6.80;;;10.40;99.90;;;;;;4988059;28;20474;-89
2024/01/02 07:06:13;;;;;;;12.48;7.63;;;10.50;99.90;;;;;;5005011;28;20089;-87
2024/01/02 07:08:38;;;;;;;17.52;7.68;;;10.60;99.90;;;;;;5004729;28;20034;-88
2024/01/02 07:11:04;;;;;;;15.32;7.50;;;10.60;99.90;;;;;;5005975;28;20423;-91
2024/01/02 07:13:30;;;;;;;17.98;8.57;;;10.60;99.90;;;;;;5005391;28;20026;-89
2024/01/02 07:15:56;;;;;;;16.50;7.50;;;10.70;99.90;;;;;;5003769;28;20102;-89
2024/01/02 07:18:22;;;;;;;21.67;8.38;;;10.70;99.90;;;;;;5005397;28;20018;-88
2024/01/02 07:20:47;;;;;;;17.02;7.28;;;10.70;99.90;;;;;;5003624;28;20037;-88
2024/01/02 07:23:13;;;;;;;19.50;7.30;;;10.70;99.90;;;;;;5005186;28;20459;-85
2024/01/02 07:25:39;;;;;;;18.60;7.15;;;10.80;99.90;;;;;;5004137;28;20036;-86
2024/01/02 07:28:05;;;;;;;18.58;6.72;;;10.80;99.90;;;;;;5003745;28;20030;-86
2024/01/02 07:30:31;;;;;;;20.58;6.97;;;10.80;99.90;;;;;;5004911;28;20022;-86
2024/01/02 07:32:57;;;;;;;21.38;5.80;;;10.90;99.90;;;;;;5012305;28;20052;-86
2024/01/02 07:35:23;;;;;;;22.20;6.97;;;10.90;99.90;;;;;;5005840;28;20026;-86
2024/01/02 07:37:49;;;;;;;23.08;6.68;;;10.90;99.90;;;;;;5003594;28;20032;-86
2024/01/02 07:40:15;;;;;;;14.43;5.07;;;10.90;99.90;;;;;;5006351;28;20045;-87
2024/01/02 07:42:41;;;;;;;17.83;5.07;;;10.90;99.90;;;;;;5002749;28;20026;-86
2024/01/02 07:45:07;;;;;;;13.65;4.60;;;10.90;99.90;;;;;;5003034;28;20076;-86
2024/01/02 07:47:34;;;;;;;12.05;5.45;;;11.00;99.90;;;;;;5003827;28;20025;-87
2024/01/02 07:50:00;;;;;;;18.77;5.32;;;11.00;99.90;;;;;;5020589;28;20025;-85
2024/01/02 07:52:26;;;;;;;20.38;6.35;;;11.00;99.90;;;;;;5004506;28;20021;-87
2024/01/02 07:54:51;;;;;;;20.35;5.10;;;11.00;99.90;;;;;;5002793;28;20021;-86
2024/01/02 07:57:17;;;;;;;13.95;3.97;;;11.00;99.90;;;;;;5004087;28;20021;-85
2024/01/02 07:59:43;;;;;;;15.32;3.90;;;11.00;99.90;;;;;;5002915;28;20482;-86
2024/01/02 08:02:08;;;;;;;24.67;4.38;;;11.00;99.90;;;;;;5003871;28;20382;-87
2024/01/02 08:04:34;;;;;;;17.50;4.45;;;11.10;99.90;;;;;;5003121;28;20017;-85
2024/01/02 08:07:01;;;;;;;15.63;4.35;;;11.00;99.90;;;;;;5002872;28;20045;-85
2024/01/02 08:09:27;;;;;;;20.63;4.70;;;11.00;99.90;;;;;;5003890;28;20034;-86
2024/01/02 08:11:53;;;;;;;21.50;4.68;;;11.00;99.90;;;;;;5002397;28;20036;-86
2024/01/02 08:14:20;;;;;;;18.23;4.40;;;11.00;99.90;;;;;;5004338;28;20022;-85
2024/01/02 08:16:45;;;;;;;24.05;5.05;;;11.10;99.90;;;;;;5002831;28;20026;-86
2024/01/02 08:19:11;;;;;;;18.20;4.53;;;11.10;99.90;;;;;;5003331;28;20110;-86
2024/01/02 08:21:37;;;;;;;19.98;4.53;;;11.10;99.90;;;;;;5002813;28;20014;-86
2024/01/02 08:24:03;;;;;;;22.05;4.63;;;11.10;99.90;;;;;;5003131;28;20022;-85
2024/01/02 08:26:28;;;;;;;23.55;5.47;;;11.10;99.90;;;;;;5004045;28;20029;-86
2024/01/02 08:28:54;;;;;;;18.00;4.28;;;11.10;99.90;;;;;;5016099;28;20041;-86
2024/01/02 08:31:20;;;;;;;24.50;4.43;;;11.10;99.90;;;;;;5024337;28;20064;-87
2024/01/02 08:33:45;;;;;;;16.27;3.05;;;11.20;99.90;;;;;;5022420;28;20021;-86
2024/01/02 08:36:11;;;;;;;24.23;5.82;;;11.20;99.90;;;;;;5023557;28;20022;-85
2024/01/02 08:38:39;;;;;;;28.10;5.60;;;11.20;99.90;;;;;;5023804;28;20052;-87
2024/01/02 08:41:05;;;;;;;25.17;4.38;;;11.20;99.90;;;;;;5040982;28;20049;-86
2024/01/02 08:43:30;;;;;;;26.25;4.00;;;11.20;99.90;;;;;;5006502;28;20113;-86
2024/01/02 08:45:56;;;;;;;21.95;3.97;;;11.20;99.90;;;;;;5002967;28;20028;-87
2024/01/02 08:48:22;;;;;;;24.40;4.38;;;11.20;99.90;;;;;;5003602;28;20045;-86
2024/01/02 08:50:48;;;;;;;21.98;4.65;;;11.20;99.90;;;;;;5001745;28;20026;-86
2024/01/02 08:53:13;;;;;;;25.80;4.60;;;11.20;99.90;;;;;;5001760;28;20141;-86
2024/01/02 08:55:40;;;;;;;28.63;4.45;;;11.20;99.90;;;;;;5002287;28;20026;-86
2024/01/02 08:58:06;;;;;;;27.80;4.57;;;11.20;99.90;;;;;;5003262;28;20053;-86
2024/01/02 09:00:33;;;;;;;20.70;4.63;;;11.30;99.90;;;;;;5003173;28;20018;-86
2024/01/02 09:03:02;;;;;;;19.02;4.43;;;11.30;99.90;;;;;;4999558;28;20029;-86
2024/01/02 09:05:28;;;;;;;24.73;4.53;;;11.30;99.90;;;;;;5003751;28;20030;-86
2024/01/02 09:07:55;;;;;;;16.17;3.65;;;11.30;99.90;;;;;;5001887;28;20060;-86
2024/01/02 09:10:21;;;;;;;23.10;4.07;;;11.30;99.90;;;;;;5003820;28;20117;-86
2024/01/02 09:12:47;;;;;;;21.92;4.53;;;11.30;99.90;;;;;;5001846;28;20033;-86
2024/01/02 09:15:13;;;;;;;19.48;4.03;;;11.30;99.90;;;;;;5003072;28;20049;-86
2024/01/02 09:17:39;;;;;;;21.13;4.10;;;11.40;99.90;;;;;;5006558;28;20018;-86
2024/01/02 09:20:06;;;;;;;22.25;3.20;;;11.40;99.90;;;;;;5006249;28;20018;-86
2024/01/02 09:22:32;;;;;;;15.80;3.28;;;11.50;99.90;;;;;;5007320;28;20018;-86
2024/01/02 09:24:59;;;;;;;12.10;3.05;;;11.40;99.90;;;;;;5005390;28;20045;-86
2024/01/02 09:27:28;;;;;;;21.80;4.53;;;11.50;99.90;;;;;;5007595;28;20026;-87
2024/01/02 09:29:54;;;;;;;19.08;5.00;;;11.50;99.90;;;;;;5006233;28;20037;-85
2024/01/02 09:32:21;;;;;;;22.50;4.80;;;11.50;99.90;;;;;;5007323;28;20036;-86
2024/01/02 09:34:47;;;;;;;20.35;4.22;;;11.50;99.90;;;;;;5006244;28;20030;-86
2024/01/02 09:37:13;;;;;;;19.25;4.10;;;11.60;99.90;;;;;;5005950;28;20025;-86
2024/01/02 09:39:38;;;;;;;17.70;3.25;;;11.60;99.90;;;;;;5007471;28;20037;-86
2024/01/02 09:42:43;;;;;;;19.55;4.40;;;11.60;99.90;;;;;;5005538;28;20033;-85
2024/01/02 09:45:32;;;;;;;21.30;3.65;;;11.60;99.90;;;;;;5006456;28;20046;-86
2024/01/02 09:48:07;;;;;;;18.27;3.58;;;11.70;99.90;;;;;;5006927;28;20088;-85
2024/01/02 09:50:50;;;;;;;15.40;3.50;;;11.70;99.90;;;;;;5005412;28;20030;-86
2024/01/02 09:53:34;;;;;;;18.00;3.60;;;11.80;99.90;;;;;;5007261;28;20068;-85
2024/01/02 09:56:10;;;;;;;10.95;2.83;;;11.80;99.90;;;;;;5006227;28;20030;-85
2024/01/02 09:58:48;;;;;;;20.13;3.90;;;11.80;99.90;;;;;;5005463;28;20030;-85
2024/01/02 10:01:22;;;;;;;14.23;3.50;;;11.80;99.90;;;;;;5006992;28;20032;-82
2024/01/02 10:04:18;;;;;;;21.17;4.38;;;11.80;99.90;;;;;;5005184;28;20033;-86
2024/01/02 10:07:05;;;;;;;18.23;5.28;;;11.80;99.90;;;;;;5005855;28;20053;-84
2024/01/02 10:09:54;;;;;;;18.75;6.30;;;11.90;99.90;;;;;;5006742;28;20064;-83
2024/01/02 10:12:32;;;;;;;17.85;5.55;;;11.80;99.90;;;;;;4968638;28;20034;-84
2024/01/02 10:15:01;;;;;;;19.90;7.47;;;11.80;99.90;;;;;;5006106;28;20030;-84
2024/01/02 10:18:06;;;;;;;18.92;7.15;;;11.90;99.90;;;;;;5005863;28;20046;-85
2024/01/02 10:20:45;;;;;;;17.67;6.40;;;11.90;99.90;;;;;;5004062;28;20037;-84
2024/01/02 10:23:40;;;;;;;18.35;7.63;;;11.90;99.90;;;;;;5006376;28;20022;-85
2024/01/02 10:26:08;;;;;;;19.92;7.55;;;11.90;99.90;;;;;;5005534;28;20132;-86
2024/01/02 10:28:36;;;;;;;14.75;7.13;;;12.00;99.90;;;;;;5004902;28;20041;-85
2024/01/02 10:31:18;;;;;;;17.38;6.50;;;11.90;99.90;;;;;;5006408;28;20193;-85
2024/01/02 10:34:04;;;;;;;15.20;6.57;;;12.00;99.90;;;;;;5004441;28;20036;-85
2024/01/02 10:36:36;;;;;;;12.25;7.00;;;12.00;99.90;;;;;;5005568;28;20025;-84
2024/01/02 10:39:26;;;;;;;15.48;7.30;;;12.00;99.90;;;;;;5002844;28;20037;-85
2024/01/02 10:42:13;;;;;;;12.73;6.97;;;12.00;99.90;;;;;;5004622;28;20069;-84
2024/01/02 10:44:54;;;;;;;17.15;7.30;;;12.00;99.90;;;;;;5005799;28;20072;-86
2024/01/02 10:47:25;;;;;;;16.48;6.32;;;12.00;99.90;;;;;;5004329;28;20022;-86
2024/01/02 10:49:52;;;;;;;12.65;6.32;;;12.10;99.90;;;;;;5001108;28;20044;-86
2024/01/02 10:52:24;;;;;;;13.10;5.47;;;12.10;99.90;;;;;;5004883;28;20030;-86
2024/01/02 10:55:07;;;;;;;10.50;5.32;;;12.10;99.90;;;;;;5003461;28;20030;-85
2024/01/02 10:57:55;;;;;;;11.85;5.55;;;12.00;99.90;;;;;;5004494;28;20030;-86
2024/01/02 11:00:22;;;;;;;7.70;4.60;;;12.00;99.90;;;;;;5005211;28;20414;-86
2024/01/02 11:03:03;;;;;;;9.98;4.60;;;12.00;99.90;;;;;;5005302;28;20030;-86
2024/01/02 11:05:36;;;;;;;7.60;3.70;;;12.00;99.90;;;;;;5015771;28;20029;-86
2024/01/02 11:08:03;;;;;;;8.10;3.75;;;12.00;99.90;;;;;;5003729;28;20037;-86
2024/01/02 11:10:32;;;;;;;4.80;2.90;;;11.90;99.90;;;;;;5005687;28;20036;-86
2024/01/02 11:13:08;;;;;;;5.13;2.42;;;11.90;99.90;;;;;;5004635;28;20030;-85
2024/01/02 11:15:41;;;;;;;4.03;2.22;;;11.90;99.90;;;;;;5004588;28;20026;-84
2024/01/02 11:18:07;;;;;;;2.83;1.60;;;11.90;99.90;;;;;;5005207;28;20383;-86
2024/01/02 11:20:48;;;;;;;2.78;1.35;;;11.90;99.90;;;;;;5004114;28;20022;-86
2024/01/02 11:23:17;;;;;;;2.75;1.38;;;11.80;99.90;;;;;;5005546;28;20048;-86
2024/01/02 11:25:56;;;;;;;4.00;1.65;;;11.80;99.90;;;;;;5003638;28;20061;-86
2024/01/02 11:28:22;;;;;;;2.03;1.00;;;11.80;99.90;;;;;;5004314;28;20037;-86
2024/01/02 11:30:50;;;;;;;1.50;0.70;;;11.80;99.90;;;;;;5004774;28;20026;-86
2024/01/02 11:33:49;;;;;;;1.33;0.77;;;11.80;99.90;;;;;;5003906;28;20034;-86
2024/01/02 11:36:21;;;;;;;1.67;0.73;;;11.80;99.90;;;;;;5004762;28;20034;-87
2024/01/02 11:39:06;;;;;;;2.42;1.00;;;11.70;99.90;;;;;;5003515;28;20045;-86
2024/01/02 11:41:40;;;;;;;1.40;0.70;;;11.70;99.90;;;;;;5001698;28;20066;-86
2024/01/02 11:44:40;;;;;;;2.25;0.90;;;11.80;99.90;;;;;;4998176;28;20572;-86
2024/01/02 11:47:25;;;;;;;1.65;0.80;;;11.80;99.90;;;;;;4999325;28;20042;-86
2024/01/02 11:49:57;;;;;;;2.13;0.80;;;11.80;99.90;;;;;;4999602;28;20092;-86
2024/01/02 11:52:23;;;;;;;1.40;0.70;;;11.80;99.90;;;;;;5001224;28;20026;-86
2024/01/02 11:55:06;;;;;;;2.80;0.98;;;11.80;99.90;;;;;;4999402;28;20034;-86
2024/01/02 11:57:53;;;;;;;1.55;0.70;;;11.80;99.90;;;;;;4999984;28;20022;-86
2024/01/02 12:00:25;;;;;;;1.50;0.60;;;11.80;99.90;;;;;;4999432;28;20034;-86
2024/01/02 12:03:15;;;;;;;2.58;0.70;;;11.80;99.90;;;;;;5000030;28;20084;-86
2024/01/02 12:05:50;;;;;;;1.45;0.60;;;11.80;99.90;;;;;;4988178;28;20102;-85
2024/01/02 12:08:23;;;;;;;19.08;11.18;;;11.80;99.90;;;;;;4983063;28;20046;-85
2024/01/02 12:10:53;;;;;;;17.00;12.55;;;11.80;99.90;;;;;;4997678;28;20122;-86
2024/01/02 12:13:28;;;;;;;24.55;18.80;;;11.80;99.90;;;;;;4996608;28;20433;-86
2024/01/02 12:16:03;;;;;;;19.30;12.10;;;11.70;99.90;;;;;;4986565;28;20031;-85
2024/01/02 12:18:35;;;;;;;8.35;4.95;;;11.80;99.90;;;;;;4991480;28;20109;-85
2024/01/02 12:21:01;;;;;;;15.88;10.95;;;11.80;99.90;;;;;;4999325;28;20026;-86
2024/01/02 12:23:31;;;;;;;9.23;5.18;;;11.80;99.90;;;;;;5000576;28;20022;-85
2024/01/02 12:26:13;;;;;;;2.75;1.40;;;11.80;99.90;;;;;;4999794;28;20038;-85
2024/01/02 12:28:40;;;;;;;14.18;12.65;;;11.80;99.90;;;;;;4999929;28;20046;-86
2024/01/02 12:31:21;;;;;;;63.15;52.75;;;11.80;99.90;;;;;;5000078;28;20037;-86
2024/01/02 12:33:49;;;;;;;27.13;21.35;;;11.70;99.90;;;;;;4997272;28;20483;-86
2024/01/02 12:36:41;;;;;;;65.60;47.85;;;11.70;99.90;;;;;;5000610;28;20038;-85
2024/01/02 12:39:08;;;;;;;95.75;65.60;;;11.80;99.90;;;;;;4999301;28;20022;-85
2024/01/02 12:41:38;;;;;;;42.55;29.88;;;11.70;99.90;;;;;;4999832;28;20047;-86
2024/01/02 12:44:07;;;;;;;43.40;31.20;;;11.60;99.90;;;;;;4999676;28;20042;-86
2024/01/02 12:46:52;;;;;;;15.52;11.45;;;11.60;99.90;;;;;;4999600;28;20026;-86
2024/01/02 12:49:26;;;;;;;5.57;3.38;;;11.60;99.90;;;;;;5000704;28;20031;-86
2024/01/02 12:51:56;;;;;;;3.13;1.65;;;11.60;99.90;;;;;;5002193;28;20030;-86
2024/01/02 12:54:23;;;;;;;2.25;1.40;;;11.50;99.90;;;;;;5005228;28;20026;-86